Adak, AK (99546)

10:59 AM HDT on August 29, 2016 (GMT -0900)
Adak | | Change Station

Elev 13 ft 51.88 °N, 176.65 °W | Updated 3 minutes ago

Overcast
Overcast
54 °F
Feels Like 54 °F
N
10
Wind Variable Wind from East

Today
High -- | Low -- °F
--% Chance of Precip.
Yesterday
High -- | Low -- °F
Precip. -- in
Pressure 30.14 in
Visibility 7.0 miles
Clouds Overcast 1100 ft
Dew Point 48 °F
Humidity 82%
Rainfall 0.20 in
Snow Depth Not available.
7:55 AM 9:38 PM
Waning Crescent, 7% visible
METAR PADK 291956Z AUTO 08009KT 7SM OVC011 12/09 A3014 RMK AO1
Pressure 30.14 in
Visibility 7.0 miles
Clouds Overcast 1100 ft
Dew Point 48 °F
Humidity 82%
Rainfall 0.20 in
Snow Depth Not available.
7:55 AM 9:38 PM
Waning Crescent, 7% visible
METAR PADK 291956Z AUTO 08009KT 7SM OVC011 12/09 A3014 RMK AO1

10-Day Weather Forecast

Almanac

Astronomy

Aug. 29, 2016 Rise Set
Actual Time
Civil Twilight
Nautical Twilight
Astronomical Twilight
Moon
Length of Visible Light
Length of Day
Tomorrow will be .
, % of the Moon is Illuminated

Today's Extremes

State Highs State Lows

Community

WunderPhotos

Upload Photos

1,935,642 photos uploaded!

WunderBlog® & News

Nearby

Air Quality

  Air Quality AQ Index Pollutant
Not available.

Snow Depth

Station Depth Elevation

Earthquake Activity

City Distance Mag. Time & Date
Minimum magnitude displayed is 2.5.

Coastal Water Temperatures

Place Temperature

Stations

Nearby Weather Stations

Station Location Temp. Windchill Dew Point Humidity Wind Precip. Elev Updated Type
                   

Watches & Warnings

There are currently no watches in effect.